createdAt,value
2022-08-27T00:00:09.249Z,1.899
2022-08-27T00:01:08.708Z,2
2022-08-27T00:02:08.634Z,2.599
2022-08-27T00:03:08.007Z,2.099
2022-08-27T00:04:08.167Z,2.200
2022-08-27T00:05:07.715Z,1.899
2022-08-27T00:06:07.867Z,2.5
2022-08-27T00:07:08.276Z,3.099
2022-08-27T00:09:07.633Z,3.099
2022-08-27T00:11:08.022Z,2.900
2022-08-27T00:12:07.945Z,2.799
2022-08-27T00:13:08.044Z,3
2022-08-27T00:14:08.073Z,3.200
2022-08-27T00:15:07.681Z,3.099
2022-08-27T00:17:07.826Z,3
2022-08-27T00:18:07.981Z,3.599
2022-08-27T00:20:07.723Z,3.400
2022-08-27T00:21:07.953Z,3.5
2022-08-27T00:22:08.075Z,3.599
2022-08-27T00:23:07.885Z,3.200
2022-08-27T00:25:07.620Z,3.799
2022-08-27T00:26:07.734Z,3.400
2022-08-27T00:27:08.101Z,3.700
2022-08-27T00:28:07.933Z,3.799
2022-08-27T00:29:07.471Z,3.599
2022-08-27T00:30:07.863Z,3.5
2022-08-27T00:31:08.225Z,3.599
2022-08-27T00:32:07.824Z,3.400
2022-08-27T00:33:07.748Z,3.5
2022-08-27T00:34:07.820Z,3.700
2022-08-27T00:35:07.756Z,4.400
2022-08-27T00:36:07.860Z,4.300
2022-08-27T00:37:07.560Z,4.5
2022-08-27T00:38:07.718Z,4.300
2022-08-27T00:39:07.949Z,4.199
2022-08-27T00:40:08.091Z,4
2022-08-27T00:41:07.646Z,4.5
2022-08-27T00:42:07.403Z,4.800
2022-08-27T00:43:07.499Z,4.900
2022-08-27T00:44:07.583Z,5.400
2022-08-27T00:45:07.853Z,4.699
2022-08-27T00:46:07.911Z,4.800
2022-08-27T00:47:08.182Z,5
2022-08-27T00:48:07.492Z,4.800
2022-08-27T00:49:07.968Z,5
2022-08-27T00:50:08.478Z,4.400
2022-08-27T00:51:07.699Z,4
2022-08-27T00:52:07.912Z,3.599
2022-08-27T00:53:08.168Z,4
2022-08-27T00:54:08.148Z,3.599
2022-08-27T00:55:08.152Z,3.799
2022-08-27T00:57:07.563Z,3.700
2022-08-27T00:58:07.571Z,4.099
2022-08-27T00:59:07.978Z,4.199
2022-08-27T01:00:08.441Z,4.300
2022-08-27T01:01:07.892Z,4.400
2022-08-27T01:02:08.312Z,4.199
2022-08-27T01:03:07.673Z,4.300
2022-08-27T01:05:08.114Z,4.5
2022-08-27T01:06:07.592Z,4.300
2022-08-27T01:07:07.456Z,4.599
2022-08-27T01:08:07.341Z,4
2022-08-27T01:09:07.841Z,4.199
2022-08-27T01:10:08.035Z,5.599
2022-08-27T01:11:08.312Z,4
2022-08-27T01:12:07.339Z,4.400
2022-08-27T01:13:07.389Z,4.599
2022-08-27T01:14:08.150Z,3.799
2022-08-27T01:15:08.224Z,4.199
2022-08-27T01:16:08.054Z,4.300
2022-08-27T01:18:07.893Z,4.800
2022-08-27T01:20:07.880Z,4.699
2022-08-27T01:21:07.596Z,4.800
2022-08-27T01:22:07.526Z,5.300
2022-08-27T01:23:07.651Z,5.599
2022-08-27T01:24:07.868Z,6.099
2022-08-27T01:25:08.236Z,5.599
2022-08-27T01:27:08.138Z,6.199
2022-08-27T01:29:07.208Z,6.300
2022-08-27T01:30:08.547Z,6.699
2022-08-27T01:31:07.787Z,5.800
2022-08-27T01:32:08.058Z,6.199
2022-08-27T01:33:07.960Z,6.099
2022-08-27T01:34:07.318Z,7.199
2022-08-27T01:35:08.269Z,6.900
2022-08-27T01:36:07.491Z,7.199
2022-08-27T01:37:07.366Z,7.800
2022-08-27T01:38:09.365Z,7.900
2022-08-27T01:39:08.013Z,7.599
2022-08-27T01:40:07.631Z,8.199
2022-08-27T01:41:07.853Z,9.699
2022-08-27T01:42:07.898Z,10.69
2022-08-27T01:43:07.734Z,11.39
2022-08-27T01:44:07.665Z,11.69
2022-08-27T01:45:08.187Z,12.30
2022-08-27T01:46:07.545Z,12.89
2022-08-27T01:47:07.627Z,13.39
2022-08-27T01:49:07.664Z,13.19
2022-08-27T01:50:07.780Z,13.39
2022-08-27T01:51:08.246Z,14
2022-08-27T01:52:07.399Z,13.69
2022-08-27T01:53:08.140Z,14.89
2022-08-27T01:54:07.650Z,14.39
2022-08-27T01:55:07.891Z,15.5
2022-08-27T01:56:07.875Z,15.10
2022-08-27T01:57:08.112Z,15.19
2022-08-27T01:58:07.988Z,14.30
2022-08-27T01:59:07.842Z,15.39
2022-08-27T02:00:08.477Z,16.29
2022-08-27T02:01:07.776Z,15.5
2022-08-27T02:02:08.332Z,16.20
2022-08-27T02:03:07.558Z,15.30
2022-08-27T02:04:07.635Z,15.80
2022-08-27T02:05:07.961Z,15.60
2022-08-27T02:06:08.022Z,16.20
2022-08-27T02:08:08.281Z,15.30
2022-08-27T02:09:07.602Z,15.19
2022-08-27T02:10:07.682Z,15.80
2022-08-27T02:11:07.694Z,16.79
2022-08-27T02:12:08.020Z,15.80
2022-08-27T02:13:07.856Z,16.20
2022-08-27T02:14:07.893Z,15.30
2022-08-27T02:15:07.803Z,16.70
2022-08-27T02:16:07.976Z,17.10
2022-08-27T02:17:08.151Z,18.60
2022-08-27T02:18:07.737Z,17.60
2022-08-27T02:19:09.794Z,18.10
2022-08-27T02:20:07.811Z,18.39
2022-08-27T02:21:07.855Z,19.10
2022-08-27T02:22:07.952Z,18.89
2022-08-27T02:23:08.104Z,18.70
2022-08-27T02:24:07.645Z,18.29
2022-08-27T02:25:10.297Z,19.5
2022-08-27T02:26:07.926Z,18.5
2022-08-27T02:27:08.094Z,17.29
2022-08-27T02:28:08.452Z,17.60
2022-08-27T02:29:07.964Z,18.39
2022-08-27T02:30:08.177Z,17.60
2022-08-27T02:31:07.475Z,19.10
2022-08-27T02:32:07.679Z,17.70
2022-08-27T02:33:08.110Z,17.79
2022-08-27T02:34:08.001Z,17.39
2022-08-27T02:35:08.628Z,16.20
2022-08-27T02:36:08.118Z,17.60
2022-08-27T02:37:07.381Z,16.5
2022-08-27T02:38:08.316Z,15.60
2022-08-27T02:39:08.044Z,15
2022-08-27T02:40:08.156Z,15.19
2022-08-27T02:42:07.691Z,15.39
2022-08-27T02:43:08.231Z,14.39
2022-08-27T02:44:10.401Z,15.30
2022-08-27T02:45:07.461Z,14.80
2022-08-27T02:46:07.591Z,15
2022-08-27T02:47:07.756Z,14.80
2022-08-27T02:49:07.712Z,14.10
2022-08-27T02:50:08.304Z,15.10
2022-08-27T02:51:07.706Z,14.69
2022-08-27T02:52:07.778Z,14.30
2022-08-27T02:53:08.006Z,15
2022-08-27T02:54:08.538Z,15.69
2022-08-27T02:55:08.209Z,14.80
2022-08-27T02:56:08.096Z,15.69
2022-08-27T02:57:08.151Z,15.10
2022-08-27T02:58:08.480Z,15.19
2022-08-27T03:00:08.515Z,14.80
2022-08-27T03:01:11.384Z,15.30
2022-08-27T03:02:08.264Z,16.39
2022-08-27T03:03:07.963Z,15.19
2022-08-27T03:04:08.329Z,15.30
2022-08-27T03:05:07.703Z,15.39
2022-08-27T03:06:07.567Z,15.69
2022-08-27T03:07:07.829Z,15.10
2022-08-27T03:08:07.721Z,15.5
2022-08-27T03:09:08.223Z,14.80
2022-08-27T03:10:08.465Z,14.10
2022-08-27T03:11:07.897Z,14.89
2022-08-27T03:12:08.129Z,13.69
2022-08-27T03:14:08.246Z,14.30
2022-08-27T03:15:07.469Z,13.60
2022-08-27T03:16:07.526Z,13.39
2022-08-27T03:17:07.996Z,13.30
2022-08-27T03:19:08.007Z,12.19
2022-08-27T03:21:08.008Z,12.89
2022-08-27T03:22:07.816Z,12.10
2022-08-27T03:23:07.805Z,12.19
2022-08-27T03:24:11.524Z,10.89
2022-08-27T03:26:07.808Z,9.899
2022-08-27T03:27:07.599Z,10.10
2022-08-27T03:28:22.498Z,9.5
2022-08-27T03:29:07.774Z,8.699
2022-08-27T03:30:08.635Z,8.600
2022-08-27T03:32:07.654Z,7.800
2022-08-27T03:33:07.812Z,7.300
2022-08-27T03:34:07.835Z,7.5
2022-08-27T03:35:07.888Z,6.300
2022-08-27T03:36:08.107Z,6
2022-08-27T03:37:07.424Z,6.199
2022-08-27T03:38:07.794Z,5.300
2022-08-27T03:40:08.105Z,5.699
2022-08-27T03:41:07.582Z,5.5
2022-08-27T03:42:07.677Z,6.199
2022-08-27T03:43:07.628Z,5.699
2022-08-27T03:44:07.687Z,6.099
2022-08-27T03:45:08.600Z,4.900
2022-08-27T03:46:08.111Z,5.300
2022-08-27T03:47:08.225Z,4.699
2022-08-27T03:48:07.620Z,4.5
2022-08-27T03:49:07.867Z,4.400
2022-08-27T03:50:12.964Z,4.699
2022-08-27T03:51:08.199Z,4.800
2022-08-27T03:52:07.389Z,4.5
2022-08-27T03:54:07.803Z,4.699
2022-08-27T03:55:07.848Z,4.5
2022-08-27T03:56:08.078Z,4.400
2022-08-27T03:57:07.458Z,5.099
2022-08-27T03:58:07.771Z,4.300
2022-08-27T03:59:07.562Z,4.699
2022-08-27T04:00:08.281Z,4.099
2022-08-27T04:01:08.019Z,4.300
2022-08-27T04:02:07.628Z,4.099
2022-08-27T04:03:08.388Z,3.599
2022-08-27T04:05:07.982Z,3.299
2022-08-27T04:06:08.051Z,3.599
2022-08-27T04:07:08.338Z,3.099
2022-08-27T04:09:08.391Z,3
2022-08-27T04:11:08.254Z,2.599
2022-08-27T04:12:07.433Z,2.700
2022-08-27T04:13:07.730Z,2.799
2022-08-27T04:14:26.107Z,3.400
2022-08-27T04:15:08.143Z,2.599
2022-08-27T04:17:07.862Z,2.799
2022-08-27T04:18:08.184Z,2.5
2022-08-27T04:19:07.908Z,2.900
2022-08-27T04:20:33.883Z,2.599
2022-08-27T04:21:07.878Z,2.700
2022-08-27T04:22:08.514Z,3
2022-08-27T04:25:11.534Z,2.799
2022-08-27T04:26:08.028Z,3.099
2022-08-27T04:27:08.417Z,3.299
2022-08-27T04:28:08.051Z,2.799
2022-08-27T04:29:07.681Z,3
2022-08-27T04:31:12.921Z,2.900
2022-08-27T04:32:08.000Z,3.200
2022-08-27T04:33:08.144Z,2.799
2022-08-27T04:34:07.823Z,3.099
2022-08-27T04:35:08.160Z,2.700
2022-08-27T04:36:07.677Z,3.200
2022-08-27T04:37:08.152Z,3
2022-08-27T04:38:07.815Z,2.799
2022-08-27T04:39:08.316Z,2.900
2022-08-27T04:41:07.778Z,2.700
2022-08-27T04:42:08.223Z,2.799
2022-08-27T04:43:07.855Z,3.099
2022-08-27T04:44:08.055Z,3
2022-08-27T04:45:08.356Z,2.799
2022-08-27T04:46:07.969Z,2.700
2022-08-27T04:47:07.969Z,3
2022-08-27T04:48:08.056Z,3.099
2022-08-27T04:49:10.208Z,3
2022-08-27T04:50:07.999Z,2.900
2022-08-27T04:51:08.165Z,3
2022-08-27T04:52:07.733Z,3.900
2022-08-27T04:53:07.999Z,4
2022-08-27T04:54:08.203Z,3.200
2022-08-27T04:56:08.063Z,3
2022-08-27T04:57:08.158Z,3.200
2022-08-27T04:58:07.689Z,3.799
2022-08-27T04:59:08.065Z,3.700
2022-08-27T05:01:07.798Z,3.900
2022-08-27T05:02:08.062Z,3.400
2022-08-27T05:03:08.298Z,4.400
2022-08-27T05:04:07.794Z,4.199
2022-08-27T05:05:07.912Z,3.900
2022-08-27T05:06:07.578Z,3.599
2022-08-27T05:07:07.720Z,3.400
2022-08-27T05:08:08.166Z,3.799
2022-08-27T05:10:08.495Z,4.099
2022-08-27T05:11:08.277Z,4
2022-08-27T05:12:07.833Z,3.799
2022-08-27T05:14:08.249Z,3.599
2022-08-27T05:15:07.804Z,3.700
2022-08-27T05:16:08.455Z,3.799
2022-08-27T05:17:08.043Z,4.699
2022-08-27T05:18:07.702Z,3.400
2022-08-27T05:19:08.136Z,3.700
2022-08-27T05:20:08.286Z,3.799
2022-08-27T05:21:07.875Z,4
2022-08-27T05:22:08.304Z,3.799
2022-08-27T05:23:07.918Z,3.900
2022-08-27T05:24:08.400Z,4.199
2022-08-27T05:25:08.056Z,3.700
2022-08-27T05:26:07.738Z,4.300
2022-08-27T05:27:08.053Z,3.5
2022-08-27T05:28:08.059Z,3.400
2022-08-27T05:29:07.666Z,3.900
2022-08-27T05:30:08.421Z,3.599
2022-08-27T05:31:07.995Z,3.799
2022-08-27T05:32:08.585Z,3.099
2022-08-27T05:33:08.351Z,3.299
2022-08-27T05:34:10.129Z,3
2022-08-27T05:36:08.239Z,2.799
2022-08-27T05:37:08.011Z,2.599
2022-08-27T05:38:08.531Z,2.799
2022-08-27T05:39:08.201Z,2.900
2022-08-27T05:40:07.873Z,2.5
2022-08-27T05:41:08.401Z,3.200
2022-08-27T05:42:07.809Z,2.400
2022-08-27T05:44:36.798Z,2.299
2022-08-27T05:47:08.476Z,2.5
2022-08-27T05:48:08.077Z,2.099
2022-08-27T05:49:07.589Z,3
2022-08-27T05:50:08.054Z,2.700
2022-08-27T05:51:07.730Z,2.200
2022-08-27T05:52:07.918Z,2.299
2022-08-27T05:53:08.361Z,2.5
2022-08-27T05:54:08.895Z,2.400
2022-08-27T05:55:07.785Z,2.5
2022-08-27T05:57:08.300Z,2.299
2022-08-27T05:58:08.194Z,2
2022-08-27T05:59:07.615Z,2.200
2022-08-27T06:00:09.316Z,2.299
2022-08-27T06:01:10.345Z,2.099
2022-08-27T06:03:07.571Z,2.599
2022-08-27T06:04:08.488Z,2.5
2022-08-27T06:05:08.309Z,2.299
2022-08-27T06:06:08.015Z,2.200
2022-08-27T06:07:08.689Z,2.599
2022-08-27T06:08:08.652Z,2.099
2022-08-27T06:09:13.295Z,2.200
2022-08-27T06:10:07.926Z,2.299
2022-08-27T06:11:13.275Z,2.200
2022-08-27T06:16:08.072Z,2.5
2022-08-27T06:17:07.815Z,1.799
2022-08-27T06:18:07.967Z,2.400
2022-08-27T06:20:08.067Z,2.599
2022-08-27T06:21:08.294Z,2.299
2022-08-27T06:23:07.797Z,2.599
2022-08-27T06:24:08.098Z,2.799
2022-08-27T06:25:08.528Z,2.400
2022-08-27T06:26:07.915Z,2.599
2022-08-27T06:27:08.080Z,2.299
2022-08-27T06:28:08.510Z,2.099
2022-08-27T06:29:08.470Z,2.299
2022-08-27T06:30:08.441Z,2.700
2022-08-27T06:31:08.000Z,2.200
2022-08-27T06:32:08.508Z,2.599
2022-08-27T06:33:07.911Z,2.799
2022-08-27T06:34:08.129Z,3.099
2022-08-27T06:35:08.706Z,2.799
2022-08-27T06:36:08.580Z,2.700
2022-08-27T06:37:07.935Z,2.599
2022-08-27T06:38:07.982Z,3
2022-08-27T06:39:07.523Z,2.599
2022-08-27T06:40:07.877Z,2.900
2022-08-27T06:41:08.350Z,3
2022-08-27T06:42:08.002Z,2.599
2022-08-27T06:43:08.730Z,2.900
2022-08-27T06:44:08.242Z,3.099
2022-08-27T06:45:08.115Z,2.700
2022-08-27T06:46:07.568Z,2.900
2022-08-27T06:47:08.178Z,3
2022-08-27T06:49:08.086Z,2.5
2022-08-27T06:50:08.119Z,2.700
2022-08-27T06:51:08.128Z,2.799
2022-08-27T06:52:08.315Z,2.599
2022-08-27T06:53:07.763Z,3.5
2022-08-27T06:54:08.005Z,3
2022-08-27T06:55:08.150Z,3.200
2022-08-27T06:56:08.356Z,3.5
2022-08-27T06:57:07.792Z,3.400
2022-08-27T06:58:08.068Z,3.099
2022-08-27T06:59:11.819Z,3.200
2022-08-27T07:00:08.300Z,3.700
2022-08-27T07:01:07.866Z,4.400
2022-08-27T07:02:08.216Z,3.799
2022-08-27T07:03:07.942Z,3.400
2022-08-27T07:04:08.455Z,3.799
2022-08-27T07:05:08.227Z,3.900
2022-08-27T07:06:07.775Z,4.5
2022-08-27T07:07:08.151Z,4.099
2022-08-27T07:08:08.490Z,4
2022-08-27T07:09:08.206Z,3.700
2022-08-27T07:10:08.736Z,4.300
2022-08-27T07:11:08.429Z,3.799
2022-08-27T07:12:08.008Z,3.900
2022-08-27T07:13:08.313Z,3.599
2022-08-27T07:14:07.776Z,3.400
2022-08-27T07:15:08.206Z,3.700
2022-08-27T07:16:08.023Z,4
2022-08-27T07:18:08.278Z,4.099
2022-08-27T07:19:08.657Z,4.199
2022-08-27T07:20:08.071Z,4
2022-08-27T07:21:08.205Z,3.799
2022-08-27T07:23:10.999Z,3.599
2022-08-27T07:24:08.209Z,3.700
2022-08-27T07:25:08.176Z,3.5
2022-08-27T07:26:08.361Z,3.400
2022-08-27T07:27:08.037Z,3.700
2022-08-27T07:28:08.198Z,3.400
2022-08-27T07:29:07.793Z,3.700
2022-08-27T07:30:08.376Z,3.599
2022-08-27T07:32:08.563Z,3.900
2022-08-27T07:33:08.202Z,3.5
2022-08-27T07:34:08.381Z,4.300
2022-08-27T07:35:07.713Z,3.5
2022-08-27T07:36:07.931Z,3.700
2022-08-27T07:37:07.902Z,3.599
2022-08-27T07:38:08.121Z,3.700
2022-08-27T07:39:08.096Z,3.299
2022-08-27T07:40:08.527Z,3.599
2022-08-27T07:41:08.424Z,3.799
2022-08-27T07:42:07.783Z,3.900
2022-08-27T07:43:08.105Z,3.599
2022-08-27T07:44:08.475Z,3.400
2022-08-27T07:45:08.224Z,3.599
2022-08-27T07:46:08.205Z,4.199
2022-08-27T07:47:08.658Z,3.900
2022-08-27T07:48:08.201Z,4.699
2022-08-27T07:49:08.489Z,3.799
2022-08-27T07:52:08.209Z,3.599
2022-08-27T07:53:08.921Z,3.900
2022-08-27T07:55:08.486Z,4.599
2022-08-27T07:56:07.905Z,6
2022-08-27T07:57:08.203Z,7.099
2022-08-27T07:59:08.338Z,8.699
2022-08-27T08:00:09.223Z,9.800
2022-08-27T08:01:08.574Z,9.399
2022-08-27T08:02:08.099Z,9.699
2022-08-27T08:03:08.559Z,9.399
2022-08-27T08:04:07.785Z,9.800
2022-08-27T08:05:08.320Z,9.100
2022-08-27T08:06:08.471Z,9.899
2022-08-27T08:07:07.940Z,10.60
2022-08-27T08:08:07.926Z,9.300
2022-08-27T08:09:10.660Z,9.699
2022-08-27T08:10:07.930Z,8.600
2022-08-27T08:11:08.099Z,10.5
2022-08-27T08:12:07.618Z,12.89
2022-08-27T08:13:07.977Z,12.19
2022-08-27T08:14:08.380Z,12
2022-08-27T08:15:08.163Z,11.69
2022-08-27T08:16:08.286Z,11.19
2022-08-27T08:17:08.859Z,10.80
2022-08-27T08:18:08.307Z,12.10
2022-08-27T08:19:08.018Z,11.19
2022-08-27T08:20:30.881Z,14.10
2022-08-27T08:21:08.198Z,12.80
2022-08-27T08:22:08.452Z,11.60
2022-08-27T08:23:09.758Z,10.69
2022-08-27T08:24:08.075Z,10.5
2022-08-27T08:25:08.412Z,10.30
2022-08-27T08:26:08.243Z,10.39
2022-08-27T08:27:08.086Z,11.10
2022-08-27T08:28:08.380Z,13.19
2022-08-27T08:29:08.582Z,12.19
2022-08-27T08:30:08.276Z,12.5
2022-08-27T08:31:07.781Z,12.10
2022-08-27T08:32:08.254Z,12.19
2022-08-27T08:33:07.709Z,13
2022-08-27T08:34:08.047Z,13.5
2022-08-27T08:35:08.165Z,13.60
2022-08-27T08:36:07.944Z,12.89
2022-08-27T08:37:08.213Z,13.5
2022-08-27T08:38:08.259Z,13.39
2022-08-27T08:39:07.948Z,13.19
2022-08-27T08:40:08.121Z,13.80
2022-08-27T08:41:07.749Z,13.30
2022-08-27T08:42:07.958Z,14.19
2022-08-27T08:43:08.846Z,14.5
2022-08-27T08:44:16.154Z,14.30
2022-08-27T08:45:08.703Z,14.19
2022-08-27T08:47:08.178Z,14.39
2022-08-27T08:48:07.708Z,14.30
2022-08-27T08:49:08.158Z,14.80
2022-08-27T08:50:08.434Z,14.30
2022-08-27T08:51:08.373Z,14.5
2022-08-27T08:52:07.925Z,13.80
2022-08-27T08:53:07.886Z,13.60
2022-08-27T08:54:08.083Z,13.10
2022-08-27T08:55:08.415Z,12.5
2022-08-27T08:56:07.815Z,12.39
2022-08-27T08:57:08.469Z,12.60
2022-08-27T08:58:08.430Z,13.69
2022-08-27T08:59:08.423Z,13.89
2022-08-27T09:00:08.190Z,13.39
2022-08-27T09:01:07.920Z,12.80
2022-08-27T09:02:12.767Z,13
2022-08-27T09:03:08.062Z,13.60
2022-08-27T09:04:08.711Z,12.5
2022-08-27T09:05:08.163Z,11.89
2022-08-27T09:06:08.537Z,11.19
2022-08-27T09:07:07.847Z,9.800
2022-08-27T09:08:31.932Z,10
2022-08-27T09:09:07.484Z,8.899
2022-08-27T09:11:07.853Z,8.300
2022-08-27T09:12:07.881Z,8.699
2022-08-27T09:13:08.140Z,7.5
2022-08-27T09:14:11.508Z,7.599
2022-08-27T09:15:09.307Z,7.400
2022-08-27T09:16:08.113Z,6.900
2022-08-27T09:17:11.457Z,7.599
2022-08-27T09:18:08.463Z,6.300
2022-08-27T09:19:07.926Z,6.599
2022-08-27T09:20:07.687Z,6.400
2022-08-27T09:21:09.027Z,6.5
2022-08-27T09:22:08.193Z,6.900
2022-08-27T09:23:07.923Z,6.699
2022-08-27T09:24:08.357Z,7.300
2022-08-27T09:26:08.103Z,7.400
2022-08-27T09:27:08.225Z,8.199
2022-08-27T09:28:07.957Z,7.5
2022-08-27T09:29:07.631Z,9.600
2022-08-27T09:30:08.211Z,9.699
2022-08-27T09:31:07.936Z,11.10
2022-08-27T09:33:08.068Z,10.89
2022-08-27T09:34:08.297Z,11.80
2022-08-27T09:35:07.652Z,11.60
2022-08-27T09:36:08.112Z,11.39
2022-08-27T09:38:08.525Z,11.19
2022-08-27T09:39:08.280Z,11.69
2022-08-27T09:40:13.639Z,11.30
2022-08-27T09:41:08.008Z,11.19
2022-08-27T09:42:08.157Z,10.5
2022-08-27T09:43:08.473Z,11
2022-08-27T09:44:07.861Z,10.39
2022-08-27T09:45:09.071Z,11.60
2022-08-27T09:46:08.139Z,10.19
2022-08-27T09:47:07.918Z,10.69
2022-08-27T09:48:08.379Z,9.899
2022-08-27T09:49:08.024Z,11
2022-08-27T09:50:07.911Z,10.69
2022-08-27T09:51:08.251Z,10.19
2022-08-27T09:52:07.727Z,9.600
2022-08-27T09:54:07.869Z,9.300
2022-08-27T09:55:08.268Z,9
2022-08-27T09:56:07.840Z,9.100
2022-08-27T09:57:07.734Z,8.600
2022-08-27T09:58:08.166Z,8.300
2022-08-27T10:00:08.996Z,7.800
2022-08-27T10:01:08.145Z,8.300
2022-08-27T10:02:12.223Z,8.5
2022-08-27T10:03:07.751Z,7.900
2022-08-27T10:04:08.283Z,8
2022-08-27T10:05:07.705Z,7.900
2022-08-27T10:06:08.419Z,7.599
2022-08-27T10:07:08.183Z,8.300
2022-08-27T10:08:08.205Z,8.100
2022-08-27T10:09:08.219Z,7.699
2022-08-27T10:10:07.786Z,8.5
2022-08-27T10:11:08.562Z,8.699
2022-08-27T10:12:08.266Z,9.199
2022-08-27T10:13:10.191Z,8.800
2022-08-27T10:14:08.467Z,9
2022-08-27T10:15:08.074Z,9.100
2022-08-27T10:16:07.810Z,9
2022-08-27T10:18:07.703Z,8.699
2022-08-27T10:19:07.553Z,9.300
2022-08-27T10:20:08.182Z,9.399
2022-08-27T10:21:08.064Z,9.199
2022-08-27T10:22:08.223Z,8.600
2022-08-27T10:23:08.466Z,8.699
2022-08-27T10:24:08.108Z,9
2022-08-27T10:25:08.508Z,9.399
2022-08-27T10:26:08.106Z,9.100
2022-08-27T10:27:08.207Z,9.5
2022-08-27T10:28:08.350Z,9.300
2022-08-27T10:29:08.115Z,9.199
2022-08-27T10:30:07.969Z,9.300
2022-08-27T10:31:07.991Z,9.699
2022-08-27T10:32:08.638Z,9.100
2022-08-27T10:33:08.250Z,8.399
2022-08-27T10:34:08.029Z,8.600
2022-08-27T10:35:08.049Z,8.399
2022-08-27T10:36:08.054Z,8.699
2022-08-27T10:37:07.994Z,8
2022-08-27T10:38:08.224Z,7.800
2022-08-27T10:39:08.098Z,7.199
2022-08-27T10:40:08.688Z,6.800
2022-08-27T10:41:08.027Z,7.199
2022-08-27T10:42:08.224Z,6.900
2022-08-27T10:43:07.523Z,6.699
2022-08-27T10:44:07.912Z,7.300
2022-08-27T10:45:08.282Z,6.300
2022-08-27T10:46:07.659Z,6.099
2022-08-27T10:47:07.669Z,6.199
2022-08-27T10:48:07.863Z,6.5
2022-08-27T10:49:07.853Z,6
2022-08-27T10:51:08.107Z,6.199
2022-08-27T10:53:08.035Z,5.599
2022-08-27T10:54:08.262Z,6.800
2022-08-27T10:55:08.582Z,6.5
2022-08-27T10:56:08.456Z,5.900
2022-08-27T10:57:28.585Z,6.5
2022-08-27T10:58:08.287Z,6.800
2022-08-27T10:59:07.920Z,5.5
2022-08-27T11:00:08.664Z,5.699
2022-08-27T11:01:07.875Z,5.199
2022-08-27T11:02:08.435Z,4.800
2022-08-27T11:03:13.843Z,4.699
2022-08-27T11:04:07.954Z,5.099
2022-08-27T11:05:13.234Z,5
2022-08-27T11:06:07.883Z,5.300
2022-08-27T11:08:07.731Z,5.5
2022-08-27T11:09:08.053Z,5
2022-08-27T11:10:08.475Z,5.199
2022-08-27T11:11:51.460Z,5.400
2022-08-27T11:12:14.307Z,6
2022-08-27T11:13:16.093Z,6.099
2022-08-27T11:14:08.100Z,5.800
2022-08-27T11:15:12.267Z,5.5
2022-08-27T11:18:08.050Z,5.400
2022-08-27T11:19:07.838Z,5.800
2022-08-27T11:20:08.148Z,5.5
2022-08-27T11:22:08.024Z,6.300
2022-08-27T11:23:08.225Z,6
2022-08-27T11:24:07.945Z,5.699
2022-08-27T11:25:08.220Z,6.099
2022-08-27T11:26:08.243Z,6.199
2022-08-27T11:27:07.727Z,6.300
2022-08-27T11:31:07.843Z,6.699
2022-08-27T11:32:08.337Z,6.800
2022-08-27T11:33:13.766Z,6.599
2022-08-27T11:34:08.337Z,6.400
2022-08-27T11:35:07.806Z,6.300
2022-08-27T11:36:08.483Z,6.800
2022-08-27T11:37:26.819Z,6
2022-08-27T11:38:08.227Z,6.599
2022-08-27T11:39:08.457Z,6.300
2022-08-27T11:40:08.645Z,5.900
2022-08-27T11:41:08.415Z,6.599
2022-08-27T11:42:07.939Z,6.300
2022-08-27T11:43:08.143Z,5.900
2022-08-27T11:44:08.140Z,6.5
2022-08-27T11:45:08.615Z,7.5
2022-08-27T11:46:08.351Z,7
2022-08-27T11:48:08.401Z,7.300
2022-08-27T11:49:07.969Z,6.699
2022-08-27T11:50:08.237Z,7
2022-08-27T11:51:07.791Z,6.800
2022-08-27T11:53:07.945Z,8.300
2022-08-27T11:54:08.087Z,7.199
2022-08-27T11:55:08.291Z,7
2022-08-27T11:56:08.188Z,6.699
2022-08-27T11:57:08.601Z,7.400
2022-08-27T11:58:08.251Z,6.800
2022-08-27T12:00:09.054Z,7
2022-08-27T12:01:08.364Z,7.199
2022-08-27T12:02:07.772Z,6.699
2022-08-27T12:03:08.310Z,7
2022-08-27T12:05:08.475Z,6.599
2022-08-27T12:06:07.987Z,6.900
2022-08-27T12:07:08.268Z,6.800
2022-08-27T12:08:08.750Z,6.400
2022-08-27T12:11:08.274Z,6.5
2022-08-27T12:12:08.130Z,6.900
2022-08-27T12:13:08.426Z,6.199
2022-08-27T12:14:08.597Z,6.400
2022-08-27T12:15:08.245Z,6.300
2022-08-27T12:16:08.296Z,6.900
2022-08-27T12:17:08.043Z,6.400
2022-08-27T12:18:08.370Z,7.099
2022-08-27T12:19:08.090Z,6.800
2022-08-27T12:21:08.434Z,6.699
2022-08-27T12:22:08.122Z,6.400
2022-08-27T12:23:07.466Z,6.699
2022-08-27T12:24:07.909Z,7
2022-08-27T12:25:08.257Z,6.5
2022-08-27T12:26:07.710Z,6.699
2022-08-27T12:27:08.167Z,6.400
2022-08-27T12:28:08.238Z,6.5
2022-08-27T12:29:07.933Z,6.599
2022-08-27T12:30:08.378Z,6.300
2022-08-27T12:31:08.196Z,6.599
2022-08-27T12:32:07.664Z,6.5
2022-08-27T12:33:07.935Z,6.699
2022-08-27T12:34:07.939Z,6.800
2022-08-27T12:35:08.511Z,6.900
2022-08-27T12:37:08.597Z,7.099
2022-08-27T12:38:08.154Z,6.900
2022-08-27T12:39:08.567Z,7.300
2022-08-27T12:40:08.116Z,7.199
2022-08-27T12:41:07.709Z,7.300
2022-08-27T12:42:08.225Z,7.599
2022-08-27T12:43:08.160Z,7.400
2022-08-27T12:44:07.877Z,7.5
2022-08-27T12:45:08.218Z,7.300
2022-08-27T12:46:07.838Z,7.900
2022-08-27T12:47:08.426Z,7.300
2022-08-27T12:48:07.998Z,7.199
2022-08-27T12:49:12.858Z,7.5
2022-08-27T12:50:08.414Z,7.599
2022-08-27T12:51:08.020Z,7.400
2022-08-27T12:52:08.143Z,7.5
2022-08-27T12:53:08.081Z,7.099
2022-08-27T12:54:08.445Z,7.800
2022-08-27T12:55:07.685Z,7.5
2022-08-27T12:56:07.959Z,7.900
2022-08-27T12:57:08.082Z,7.599
2022-08-27T12:58:09.032Z,8.100
2022-08-27T12:59:07.641Z,7.599
2022-08-27T13:00:08.738Z,7.5
2022-08-27T13:02:08.061Z,7.400
2022-08-27T13:03:07.600Z,7
2022-08-27T13:04:07.921Z,7.400
2022-08-27T13:05:10.019Z,7.099
2022-08-27T13:06:07.861Z,8.199
2022-08-27T13:07:08.361Z,7.699
2022-08-27T13:08:08.364Z,7.800
2022-08-27T13:09:07.889Z,7.900
2022-08-27T13:10:08.467Z,7.199
2022-08-27T13:11:08.132Z,7.900
2022-08-27T13:12:08.439Z,8
2022-08-27T13:13:07.803Z,7.900
2022-08-27T13:14:08.206Z,7.699
2022-08-27T13:15:08.626Z,8.100
2022-08-27T13:16:08.307Z,8.300
2022-08-27T13:17:07.944Z,7.900
2022-08-27T13:18:08.246Z,8.600
2022-08-27T13:19:08.201Z,8.5
2022-08-27T13:20:08.602Z,7.699
2022-08-27T13:21:08.017Z,7.900
2022-08-27T13:22:07.895Z,8.899
2022-08-27T13:23:08.129Z,8.300
2022-08-27T13:24:07.647Z,8
2022-08-27T13:25:08.032Z,7.800
2022-08-27T13:26:08.132Z,8.600
2022-08-27T13:27:07.985Z,8
2022-08-27T13:28:08.506Z,9.199
2022-08-27T13:29:08.126Z,7.699
2022-08-27T13:30:07.796Z,8.199
2022-08-27T13:31:07.752Z,8.399
2022-08-27T13:32:07.840Z,8.300
2022-08-27T13:33:07.991Z,8.699
2022-08-27T13:34:08.337Z,7.800
2022-08-27T13:36:08.101Z,8.399
2022-08-27T13:37:08.356Z,8
2022-08-27T13:38:07.977Z,7.699
2022-08-27T13:39:07.792Z,8
2022-08-27T13:40:08.484Z,7.599
2022-08-27T13:41:08.152Z,8.199
2022-08-27T13:42:07.647Z,7.300
2022-08-27T13:43:08.918Z,7.800
2022-08-27T13:44:07.830Z,6.900
2022-08-27T13:45:08.132Z,7.5
2022-08-27T13:46:08.043Z,7.099
2022-08-27T13:47:07.914Z,7.199
2022-08-27T13:49:08.021Z,6.900
2022-08-27T13:50:07.932Z,7.400
2022-08-27T13:51:08.387Z,8
2022-08-27T13:52:07.728Z,7
2022-08-27T13:53:08.971Z,6.699
2022-08-27T13:54:08.173Z,6.900
2022-08-27T13:55:08.194Z,7.099
2022-08-27T13:56:08.018Z,6.800
2022-08-27T13:57:08.290Z,7.099
2022-08-27T13:58:07.937Z,7.199
2022-08-27T13:59:07.708Z,7.800
2022-08-27T14:00:08.394Z,7
2022-08-27T14:02:07.789Z,7.300
2022-08-27T14:03:08.393Z,7.699
2022-08-27T14:04:07.661Z,7.199
2022-08-27T14:05:08.070Z,7.400
2022-08-27T14:06:08.216Z,7.199
2022-08-27T14:08:08.173Z,7.099
2022-08-27T14:09:08.253Z,6.800
2022-08-27T14:10:08.479Z,6.900
2022-08-27T14:11:07.979Z,7.199
2022-08-27T14:14:08.088Z,7
2022-08-27T14:15:08.257Z,7.800
2022-08-27T14:17:07.840Z,8.300
2022-08-27T14:18:08.222Z,8.199
2022-08-27T14:19:07.789Z,7.900
2022-08-27T14:20:09.287Z,8
2022-08-27T14:21:08.197Z,8.300
2022-08-27T14:23:08.299Z,8.699
2022-08-27T14:24:08.211Z,8.199
2022-08-27T14:27:08.212Z,7.900
2022-08-27T14:28:08.407Z,7.400
2022-08-27T14:29:11.883Z,8.5
2022-08-27T14:30:08.315Z,8
2022-08-27T14:31:08.177Z,7.599
2022-08-27T14:32:08.307Z,7.5
2022-08-27T14:34:08.195Z,7.599
2022-08-27T14:35:08.148Z,7.199
2022-08-27T14:36:08.146Z,7.699
2022-08-27T14:37:08.342Z,7.5
2022-08-27T14:38:07.970Z,8